createdAt,value
2023-04-16T00:00:07.076Z,3158.00
2023-04-16T00:01:07.099Z,3135.00
2023-04-16T00:02:07.187Z,3140.00
2023-04-16T00:03:07.471Z,3148.00
2023-04-16T00:04:07.401Z,3133.00
2023-04-16T00:05:07.325Z,3149.00
2023-04-16T00:06:07.255Z,3141.00
2023-04-16T00:07:07.263Z,3138.00
2023-04-16T00:08:07.286Z,3128.00
2023-04-16T00:09:07.535Z,3125.00
2023-04-16T00:10:07.293Z,3141.00
2023-04-16T00:11:07.321Z,3124.00
2023-04-16T00:12:07.333Z,3129.00
2023-04-16T00:13:07.361Z,3124.00
2023-04-16T00:14:07.397Z,3121.00
2023-04-16T00:15:07.409Z,3114.00
2023-04-16T00:16:07.454Z,3109.00
2023-04-16T00:17:07.499Z,3121.00
2023-04-16T00:18:07.539Z,3106.00
2023-04-16T00:19:07.760Z,3103.00
2023-04-16T00:20:07.584Z,3112.00
2023-04-16T00:21:07.607Z,3106.00
2023-04-16T00:22:07.635Z,3093.00
2023-04-16T00:23:07.673Z,3117.00
2023-04-16T00:24:07.664Z,3096.00
2023-04-16T00:25:07.692Z,3094.00
2023-04-16T00:26:07.693Z,3083.00
2023-04-16T00:27:07.716Z,3110.00
2023-04-16T00:28:09.010Z,3102.00
2023-04-16T00:29:08.114Z,3099.00
2023-04-16T00:30:07.728Z,3099.00
2023-04-16T00:31:07.790Z,3082.00
2023-04-16T00:32:07.774Z,3089.00
2023-04-16T00:33:07.793Z,3087.00
2023-04-16T00:34:07.841Z,3093.00
2023-04-16T00:35:07.881Z,3072.00
2023-04-16T00:36:07.886Z,3085.00
2023-04-16T00:37:07.944Z,3079.00
2023-04-16T00:38:07.987Z,3064.00
2023-04-16T00:39:08.325Z,3067.00
2023-04-16T00:40:08.076Z,3073.00
2023-04-16T00:41:08.076Z,3065.00
2023-04-16T00:42:08.106Z,3062.00
2023-04-16T00:43:08.134Z,3050.00
2023-04-16T00:44:08.192Z,3058.00
2023-04-16T00:45:08.203Z,3051.00
2023-04-16T00:46:08.225Z,3053.00
2023-04-16T00:47:08.234Z,3050.00
2023-04-16T00:48:08.280Z,3048.00
2023-04-16T00:49:08.503Z,3056.00
2023-04-16T00:50:08.354Z,3053.00
2023-04-16T00:51:08.424Z,3055.00
2023-04-16T00:52:08.414Z,3046.00
2023-04-16T00:53:08.417Z,3050.00
2023-04-16T00:54:08.440Z,3032.00
2023-04-16T00:55:08.460Z,3030.00
2023-04-16T00:56:08.475Z,3027.00
2023-04-16T00:57:08.493Z,3028.00
2023-04-16T00:58:08.523Z,3023.00
2023-04-16T00:59:08.806Z,3034.00
2023-04-16T01:00:08.630Z,3033.00
2023-04-16T01:01:08.712Z,3018.00
2023-04-16T01:02:08.877Z,3025.00
2023-04-16T01:03:08.703Z,3019.00
2023-04-16T01:04:08.711Z,3029.00
2023-04-16T01:05:08.663Z,3017.00
2023-04-16T01:06:08.718Z,3018.00
2023-04-16T01:07:08.698Z,3013.00
2023-04-16T01:08:08.726Z,3030.00
2023-04-16T01:09:08.942Z,3009.00
2023-04-16T01:10:08.800Z,3008.00
2023-04-16T01:11:08.822Z,3015.00
2023-04-16T01:12:08.829Z,3009.00
2023-04-16T01:13:08.827Z,3003.00
2023-04-16T01:14:08.837Z,3006.00
2023-04-16T01:15:08.844Z,2998.00
2023-04-16T01:16:08.868Z,3006.00
2023-04-16T01:17:08.842Z,2995.00
2023-04-16T01:18:08.837Z,2991.00
2023-04-16T01:19:09.171Z,2990.00
2023-04-16T01:20:08.847Z,2989.00
2023-04-16T01:21:08.839Z,2981.00
2023-04-16T01:22:08.846Z,2977.00
2023-04-16T01:23:08.854Z,2987.00
2023-04-16T01:24:08.852Z,2980.00
2023-04-16T01:25:08.852Z,2982.00
2023-04-16T01:26:08.867Z,2978.00
2023-04-16T01:27:08.889Z,2984.00
2023-04-16T01:28:08.889Z,2977.00
2023-04-16T01:29:09.090Z,2974.00
2023-04-16T01:30:08.900Z,2966.00
2023-04-16T01:31:08.974Z,2961.00
2023-04-16T01:32:08.894Z,2961.00
2023-04-16T01:33:08.927Z,2965.00
2023-04-16T01:34:08.934Z,2966.00
2023-04-16T01:35:08.931Z,2966.00
2023-04-16T01:36:08.939Z,2961.00
2023-04-16T01:37:08.950Z,2953.00
2023-04-16T01:38:08.953Z,2957.00
2023-04-16T01:39:09.088Z,2950.00
2023-04-16T01:40:08.969Z,2957.00
2023-04-16T01:41:08.979Z,2941.00
2023-04-16T01:42:08.998Z,2948.00
2023-04-16T01:43:08.985Z,2944.00
2023-04-16T01:44:09.000Z,2947.00
2023-04-16T01:45:09.006Z,2944.00
2023-04-16T01:46:09.051Z,2938.00
2023-04-16T01:47:09.035Z,2934.00
2023-04-16T01:48:09.033Z,2942.00
2023-04-16T01:49:09.156Z,2930.00
2023-04-16T01:50:09.076Z,2932.00
2023-04-16T01:51:09.062Z,2926.00
2023-04-16T01:52:09.076Z,2934.00
2023-04-16T01:53:09.079Z,2931.00
2023-04-16T01:54:09.085Z,2932.00
2023-04-16T01:55:09.073Z,2933.00
2023-04-16T01:56:09.082Z,2935.00
2023-04-16T01:57:09.073Z,2927.00
2023-04-16T01:58:09.073Z,2919.00
2023-04-16T01:59:09.424Z,2935.00
2023-04-16T02:00:09.053Z,2936.00
2023-04-16T02:01:09.081Z,2930.00
2023-04-16T02:02:09.135Z,2912.00
2023-04-16T02:03:09.179Z,2923.00
2023-04-16T02:04:09.108Z,2924.00
2023-04-16T02:05:09.058Z,2903.00
2023-04-16T02:06:09.038Z,2906.00
2023-04-16T02:07:09.060Z,2906.00
2023-04-16T02:08:09.031Z,2905.00
2023-04-16T02:09:09.157Z,2912.00
2023-04-16T02:10:09.034Z,2903.00
2023-04-16T02:11:09.029Z,2904.00
2023-04-16T02:12:09.035Z,2906.00
2023-04-16T02:13:09.030Z,2908.00
2023-04-16T02:14:09.030Z,2907.00
2023-04-16T02:15:09.032Z,2891.00
2023-04-16T02:16:09.123Z,2902.00
2023-04-16T02:17:09.034Z,2897.00
2023-04-16T02:18:09.104Z,2907.00
2023-04-16T02:19:09.330Z,2891.00
2023-04-16T02:20:09.019Z,2881.00
2023-04-16T02:21:09.022Z,2887.00
2023-04-16T02:22:09.016Z,2886.00
2023-04-16T02:23:09.023Z,2891.00
2023-04-16T02:24:09.029Z,2874.00
2023-04-16T02:25:09.019Z,2876.00
2023-04-16T02:26:09.014Z,2878.00
2023-04-16T02:27:09.013Z,2876.00
2023-04-16T02:28:09.014Z,2871.00
2023-04-16T02:29:09.201Z,2865.00
2023-04-16T02:30:08.997Z,2878.00
2023-04-16T02:31:08.985Z,2873.00
2023-04-16T02:32:09.078Z,2869.00
2023-04-16T02:33:08.993Z,2875.00
2023-04-16T02:34:08.985Z,2863.00
2023-04-16T02:35:08.974Z,2861.00
2023-04-16T02:36:08.959Z,2852.00
2023-04-16T02:37:08.972Z,2854.00
2023-04-16T02:38:08.966Z,2855.00
2023-04-16T02:39:09.085Z,2859.00
2023-04-16T02:40:08.942Z,2860.00
2023-04-16T02:41:08.935Z,2860.00
2023-04-16T02:42:08.932Z,2852.00
2023-04-16T02:43:08.925Z,2853.00
2023-04-16T02:44:08.920Z,2845.00
2023-04-16T02:45:08.917Z,2853.00
2023-04-16T02:46:08.958Z,2858.00
2023-04-16T02:47:08.925Z,2849.00
2023-04-16T02:48:08.925Z,2855.00
2023-04-16T02:49:09.065Z,2850.00
2023-04-16T02:50:08.918Z,2846.00
2023-04-16T02:51:08.918Z,2844.00
2023-04-16T02:52:08.950Z,2854.00
2023-04-16T02:53:08.904Z,2851.00
2023-04-16T02:54:08.890Z,2841.00
2023-04-16T02:55:08.892Z,2844.00
2023-04-16T02:56:08.885Z,2822.00
2023-04-16T02:57:08.880Z,2827.00
2023-04-16T02:58:08.864Z,2824.00
2023-04-16T02:59:09.066Z,2773.00
2023-04-16T03:00:08.852Z,2624.00
2023-04-16T03:01:08.890Z,2472.00
2023-04-16T03:02:08.834Z,2358.00
2023-04-16T03:03:08.855Z,2255.00
2023-04-16T03:04:08.867Z,2127.00
2023-04-16T03:05:08.818Z,2001.00
2023-04-16T03:06:08.816Z,1843.00
2023-04-16T03:07:08.820Z,1715.00
2023-04-16T03:08:08.818Z,1592.00
2023-04-16T03:09:09.040Z,1439.00
2023-04-16T03:10:08.814Z,1304.00
2023-04-16T03:11:08.801Z,1198.00
2023-04-16T03:12:08.796Z,1065.00
2023-04-16T03:13:08.791Z,977.00
2023-04-16T03:14:08.791Z,876.00
2023-04-16T03:15:08.800Z,757.00
2023-04-16T03:16:08.828Z,662.00
2023-04-16T03:17:08.796Z,622.00
2023-04-16T03:18:08.820Z,588.00
2023-04-16T03:19:09.113Z,552.00
2023-04-16T03:20:08.798Z,517.00
2023-04-16T03:21:08.796Z,500.00
2023-04-16T03:22:08.799Z,499.00
2023-04-16T03:23:08.788Z,500.00
2023-04-16T03:24:08.781Z,500.00
2023-04-16T03:25:08.765Z,500.00
2023-04-16T03:26:08.771Z,500.00
2023-04-16T03:27:08.849Z,501.00
2023-04-16T03:28:08.769Z,500.00
2023-04-16T03:29:08.969Z,500.00
2023-04-16T03:30:08.765Z,500.00
2023-04-16T03:31:08.817Z,502.00
2023-04-16T03:32:08.763Z,500.00
2023-04-16T03:33:08.790Z,500.00
2023-04-16T03:34:08.793Z,501.00
2023-04-16T03:35:08.823Z,500.00
2023-04-16T03:36:08.824Z,501.00
2023-04-16T03:37:08.837Z,500.00
2023-04-16T03:38:08.862Z,500.00
2023-04-16T03:39:09.027Z,500.00
2023-04-16T03:40:08.900Z,500.00
2023-04-16T03:41:08.935Z,500.00
2023-04-16T03:42:08.942Z,500.00
2023-04-16T03:43:08.975Z,500.00
2023-04-16T03:44:08.990Z,507.00
2023-04-16T03:45:09.014Z,500.00
2023-04-16T03:46:09.077Z,501.00
2023-04-16T03:47:09.064Z,500.00
2023-04-16T03:48:09.109Z,500.00
2023-04-16T03:49:09.303Z,500.00
2023-04-16T03:50:09.172Z,505.00
2023-04-16T03:51:09.176Z,513.00
2023-04-16T03:52:09.219Z,500.00
2023-04-16T03:53:09.327Z,502.00
2023-04-16T03:54:09.303Z,502.00
2023-04-16T03:55:09.316Z,500.00
2023-04-16T03:56:09.337Z,498.00
2023-04-16T03:57:09.375Z,503.00
2023-04-16T03:58:09.397Z,504.00
2023-04-16T03:59:09.772Z,503.00
2023-04-16T04:00:09.459Z,500.00
2023-04-16T04:01:09.484Z,500.00
2023-04-16T04:02:09.672Z,500.00
2023-04-16T04:03:09.709Z,507.00
2023-04-16T04:04:09.778Z,505.00
2023-04-16T04:05:09.681Z,506.00
2023-04-16T04:06:09.665Z,501.00
2023-04-16T04:07:09.716Z,507.00
2023-04-16T04:08:09.759Z,500.00
2023-04-16T04:09:10.051Z,501.00
2023-04-16T04:10:09.840Z,505.00
2023-04-16T04:11:09.834Z,496.00
2023-04-16T04:12:09.844Z,491.00
2023-04-16T04:13:09.845Z,489.00
2023-04-16T04:14:09.855Z,488.00
2023-04-16T04:15:09.871Z,486.00
2023-04-16T04:16:09.934Z,500.00
2023-04-16T04:17:09.889Z,505.00
2023-04-16T04:18:09.883Z,510.00
2023-04-16T04:19:10.067Z,508.00
2023-04-16T04:20:09.893Z,509.00
2023-04-16T04:21:09.895Z,500.00
2023-04-16T04:22:09.892Z,512.00
2023-04-16T04:23:09.902Z,508.00
2023-04-16T04:24:09.932Z,500.00
2023-04-16T04:25:09.943Z,500.00
2023-04-16T04:26:09.945Z,501.00
2023-04-16T04:27:09.933Z,499.00
2023-04-16T04:28:09.942Z,497.00
2023-04-16T04:29:10.125Z,499.00
2023-04-16T04:30:09.937Z,511.00
2023-04-16T04:31:09.957Z,500.00
2023-04-16T04:32:09.960Z,501.00
2023-04-16T04:33:09.937Z,501.00
2023-04-16T04:34:09.946Z,502.00
2023-04-16T04:35:09.942Z,503.00
2023-04-16T04:36:09.944Z,494.00
2023-04-16T04:37:09.955Z,497.00
2023-04-16T04:38:09.964Z,503.00
2023-04-16T04:39:10.183Z,500.00
2023-04-16T04:40:09.970Z,506.00
2023-04-16T04:41:09.972Z,500.00
2023-04-16T04:42:10.019Z,502.00
2023-04-16T04:43:10.079Z,508.00
2023-04-16T04:44:10.151Z,505.00
2023-04-16T04:45:10.204Z,511.00
2023-04-16T04:46:10.313Z,501.00
2023-04-16T04:47:10.336Z,502.00
2023-04-16T04:48:10.403Z,500.00
2023-04-16T04:49:10.868Z,500.00
2023-04-16T04:50:10.527Z,500.00
2023-04-16T04:51:10.579Z,503.00
2023-04-16T04:52:10.636Z,501.00
2023-04-16T04:53:10.712Z,500.00
2023-04-16T04:54:10.777Z,500.00
2023-04-16T04:55:10.845Z,499.00
2023-04-16T04:56:12.690Z,501.00
2023-04-16T04:57:10.980Z,508.00
2023-04-16T04:58:11.016Z,514.00
2023-04-16T04:59:11.276Z,503.00
2023-04-16T05:00:11.157Z,505.00
2023-04-16T05:01:11.287Z,503.00
2023-04-16T05:02:11.307Z,508.00
2023-04-16T05:03:11.472Z,512.00
2023-04-16T05:04:11.464Z,507.00
2023-04-16T05:05:11.553Z,506.00
2023-04-16T05:06:11.568Z,513.00
2023-04-16T05:07:11.642Z,515.00
2023-04-16T05:08:11.719Z,520.00
2023-04-16T05:09:11.994Z,521.00
2023-04-16T05:10:11.861Z,526.00
2023-04-16T05:11:11.931Z,533.00
2023-04-16T05:12:11.994Z,531.00
2023-04-16T05:13:12.060Z,528.00
2023-04-16T05:14:12.121Z,541.00
2023-04-16T05:15:12.165Z,548.00
2023-04-16T05:16:12.267Z,558.00
2023-04-16T05:17:12.311Z,564.00
2023-04-16T05:18:12.380Z,568.00
2023-04-16T05:19:12.540Z,577.00
2023-04-16T05:20:12.521Z,577.00
2023-04-16T05:21:12.564Z,588.00
2023-04-16T05:22:12.656Z,590.00
2023-04-16T05:23:12.717Z,602.00
2023-04-16T05:24:14.865Z,593.00
2023-04-16T05:25:12.802Z,602.00
2023-04-16T05:26:12.833Z,616.00
2023-04-16T05:27:12.881Z,615.00
2023-04-16T05:28:12.910Z,613.00
2023-04-16T05:29:12.945Z,616.00
2023-04-16T05:30:12.985Z,621.00
2023-04-16T05:31:13.092Z,618.00
2023-04-16T05:32:13.081Z,624.00
2023-04-16T05:33:13.149Z,625.00
2023-04-16T05:34:13.183Z,630.00
2023-04-16T05:35:15.241Z,628.00
2023-04-16T05:36:13.224Z,636.00
2023-04-16T05:37:13.236Z,634.00
2023-04-16T05:38:13.239Z,645.00
2023-04-16T05:39:13.237Z,644.00
2023-04-16T05:40:13.318Z,644.00
2023-04-16T05:41:13.244Z,642.00
2023-04-16T05:42:13.257Z,645.00
2023-04-16T05:43:13.256Z,649.00
2023-04-16T05:44:13.260Z,657.00
2023-04-16T05:45:13.266Z,666.00
2023-04-16T05:46:13.329Z,698.00
2023-04-16T05:47:13.265Z,693.00
2023-04-16T05:48:13.270Z,693.00
2023-04-16T05:49:13.276Z,697.00
2023-04-16T05:50:13.271Z,702.00
2023-04-16T05:51:13.291Z,715.00
2023-04-16T05:52:13.296Z,753.00
2023-04-16T05:53:13.295Z,793.00
2023-04-16T05:54:13.305Z,796.00
2023-04-16T05:55:13.311Z,806.00
2023-04-16T05:56:13.331Z,826.00
2023-04-16T05:57:13.340Z,864.00
2023-04-16T05:58:13.336Z,902.00
2023-04-16T05:59:13.353Z,931.00
2023-04-16T06:00:13.365Z,967.00
2023-04-16T06:01:13.360Z,1011.00
2023-04-16T06:02:13.546Z,1051.00
2023-04-16T06:03:13.499Z,1058.00
2023-04-16T06:04:13.645Z,1096.00
2023-04-16T06:05:13.492Z,1096.00
2023-04-16T06:07:13.441Z,1097.00
2023-04-16T06:08:13.437Z,1108.00
2023-04-16T06:09:13.438Z,1096.00
2023-04-16T06:10:13.435Z,1087.00
2023-04-16T06:11:13.444Z,1079.00
2023-04-16T06:12:13.520Z,1051.00
2023-04-16T06:13:13.476Z,1044.00
2023-04-16T06:14:13.479Z,1044.00
2023-04-16T06:15:13.500Z,1030.00
2023-04-16T06:16:13.577Z,1007.00
2023-04-16T06:17:13.486Z,1006.00
2023-04-16T06:18:13.572Z,993.00
2023-04-16T06:19:13.514Z,982.00
2023-04-16T06:20:13.490Z,964.00
2023-04-16T06:21:13.519Z,985.00
2023-04-16T06:22:13.508Z,967.00
2023-04-16T06:23:13.511Z,981.00
2023-04-16T06:24:13.524Z,995.00
2023-04-16T06:25:13.528Z,991.00
2023-04-16T06:26:13.515Z,976.00
2023-04-16T06:27:13.520Z,948.00
2023-04-16T06:28:13.512Z,951.00
2023-04-16T06:29:13.529Z,936.00
2023-04-16T06:30:13.541Z,904.00
2023-04-16T06:31:13.576Z,895.00
2023-04-16T06:32:13.539Z,907.00
2023-04-16T06:33:13.570Z,882.00
2023-04-16T06:34:13.553Z,866.00
2023-04-16T06:35:13.598Z,857.00
2023-04-16T06:36:13.651Z,848.00
2023-04-16T06:37:13.658Z,849.00
2023-04-16T06:38:13.687Z,814.00
2023-04-16T06:39:13.707Z,810.00
2023-04-16T06:40:13.756Z,817.00
2023-04-16T06:41:13.780Z,811.00
2023-04-16T06:42:13.788Z,794.00
2023-04-16T06:43:13.788Z,783.00
2023-04-16T06:44:13.799Z,780.00
2023-04-16T06:45:13.809Z,761.00
2023-04-16T06:46:13.843Z,776.00
2023-04-16T06:47:13.822Z,751.00
2023-04-16T06:48:13.824Z,735.00
2023-04-16T06:49:13.827Z,728.00
2023-04-16T06:50:13.847Z,700.00
2023-04-16T06:51:13.877Z,710.00
2023-04-16T06:52:13.896Z,691.00
2023-04-16T06:53:13.902Z,685.00
2023-04-16T06:54:13.918Z,664.00
2023-04-16T06:55:13.929Z,668.00
2023-04-16T06:56:13.931Z,654.00
2023-04-16T06:57:13.951Z,645.00
2023-04-16T06:58:13.948Z,649.00
2023-04-16T06:59:13.969Z,638.00
2023-04-16T07:00:13.997Z,627.00
2023-04-16T07:01:14.019Z,617.00
2023-04-16T07:02:14.063Z,614.00
2023-04-16T07:03:14.185Z,616.00
2023-04-16T07:04:14.074Z,611.00
2023-04-16T07:05:14.014Z,612.00
2023-04-16T07:06:14.013Z,612.00
2023-04-16T07:07:14.015Z,615.00
2023-04-16T07:08:14.024Z,613.00
2023-04-16T07:09:14.033Z,613.00
2023-04-16T07:10:14.056Z,609.00
2023-04-16T07:11:14.053Z,612.00
2023-04-16T07:12:14.040Z,612.00
2023-04-16T07:13:14.055Z,610.00
2023-04-16T07:14:14.087Z,612.00
2023-04-16T07:15:14.072Z,613.00
2023-04-16T07:16:14.125Z,621.00
2023-04-16T07:17:14.085Z,635.00
2023-04-16T07:18:14.226Z,644.00
2023-04-16T07:19:14.104Z,650.00
2023-04-16T07:20:14.110Z,672.00
2023-04-16T07:21:14.107Z,700.00
2023-04-16T07:22:14.142Z,719.00
2023-04-16T07:23:14.128Z,712.00
2023-04-16T07:24:14.154Z,706.00
2023-04-16T07:25:14.162Z,720.00
2023-04-16T07:26:14.163Z,714.00
2023-04-16T07:27:14.181Z,678.00
2023-04-16T07:28:14.181Z,666.00
2023-04-16T07:29:14.242Z,647.00
2023-04-16T07:30:14.271Z,636.00
2023-04-16T07:31:14.256Z,632.00
2023-04-16T07:32:15.576Z,634.00
2023-04-16T07:33:14.278Z,632.00
2023-04-16T07:34:14.290Z,633.00
2023-04-16T07:35:14.319Z,638.00
2023-04-16T07:36:14.307Z,637.00
2023-04-16T07:37:14.317Z,623.00
2023-04-16T07:38:14.326Z,625.00
2023-04-16T07:39:14.338Z,629.00
2023-04-16T07:40:14.394Z,620.00
2023-04-16T07:41:14.424Z,614.00
2023-04-16T07:42:14.490Z,609.00
2023-04-16T07:43:14.561Z,598.00
2023-04-16T07:44:14.652Z,605.00
2023-04-16T07:45:14.725Z,601.00
2023-04-16T07:46:14.806Z,596.00
2023-04-16T07:47:14.888Z,593.00
2023-04-16T07:48:14.947Z,585.00
2023-04-16T07:49:15.044Z,583.00
2023-04-16T07:50:15.065Z,589.00
2023-04-16T07:51:15.118Z,594.00
2023-04-16T07:52:15.161Z,596.00
2023-04-16T07:53:15.226Z,596.00
2023-04-16T07:54:15.303Z,598.00
2023-04-16T07:55:15.351Z,598.00
2023-04-16T07:56:15.420Z,593.00
2023-04-16T07:57:15.490Z,591.00
2023-04-16T07:58:15.563Z,593.00
2023-04-16T07:59:22.982Z,587.00
2023-04-16T08:00:16.636Z,587.00
2023-04-16T08:01:15.634Z,587.00
2023-04-16T08:02:15.717Z,589.00
2023-04-16T08:03:15.832Z,587.00
2023-04-16T08:04:15.764Z,586.00
2023-04-16T08:05:15.751Z,588.00
2023-04-16T08:06:15.659Z,587.00
2023-04-16T08:07:15.668Z,580.00
2023-04-16T08:08:15.660Z,575.00
2023-04-16T08:09:15.678Z,572.00
2023-04-16T08:10:15.682Z,563.00
2023-04-16T08:11:15.744Z,559.00
2023-04-16T08:12:15.801Z,549.00
2023-04-16T08:13:15.894Z,560.00
2023-04-16T08:14:15.961Z,550.00
2023-04-16T08:15:16.034Z,540.00
2023-04-16T08:16:16.093Z,539.00
2023-04-16T08:17:16.052Z,537.00
2023-04-16T08:18:16.054Z,532.00
2023-04-16T08:19:16.074Z,533.00
2023-04-16T08:20:19.040Z,533.00
2023-04-16T08:21:16.082Z,530.00
2023-04-16T08:22:16.103Z,528.00
2023-04-16T08:23:16.083Z,528.00
2023-04-16T08:24:16.095Z,523.00
2023-04-16T08:25:16.118Z,523.00
2023-04-16T08:26:16.109Z,528.00
2023-04-16T08:27:19.894Z,527.00
2023-04-16T08:28:16.120Z,526.00
2023-04-16T08:29:16.129Z,525.00
2023-04-16T08:30:16.129Z,516.00
2023-04-16T08:31:16.185Z,514.00
2023-04-16T08:32:16.162Z,515.00
2023-04-16T08:33:16.191Z,512.00
2023-04-16T08:34:16.158Z,519.00
2023-04-16T08:35:16.159Z,511.00
2023-04-16T08:36:16.180Z,510.00
2023-04-16T08:37:16.187Z,511.00
2023-04-16T08:38:16.184Z,507.00
2023-04-16T08:39:16.183Z,515.00
2023-04-16T08:40:16.193Z,513.00
2023-04-16T08:41:16.223Z,525.00
2023-04-16T08:42:16.217Z,535.00
2023-04-16T08:43:16.232Z,543.00
2023-04-16T08:44:16.226Z,543.00
2023-04-16T08:45:16.231Z,560.00
2023-04-16T08:46:16.310Z,557.00
2023-04-16T08:47:16.261Z,557.00
2023-04-16T08:48:16.304Z,559.00
2023-04-16T08:49:16.371Z,557.00
2023-04-16T08:50:16.436Z,555.00
2023-04-16T08:51:16.513Z,561.00
2023-04-16T08:52:16.578Z,557.00
2023-04-16T08:53:16.646Z,559.00
2023-04-16T08:54:16.707Z,554.00
2023-04-16T08:55:16.789Z,555.00
2023-04-16T08:56:16.848Z,549.00
2023-04-16T08:57:16.900Z,558.00
2023-04-16T08:58:16.972Z,569.00
2023-04-16T08:59:17.021Z,562.00
2023-04-16T09:00:17.072Z,568.00
2023-04-16T09:01:17.130Z,571.00
2023-04-16T09:02:17.198Z,571.00
2023-04-16T09:03:17.216Z,577.00
2023-04-16T09:04:17.228Z,596.00
2023-04-16T09:05:17.157Z,633.00
2023-04-16T09:06:17.142Z,747.00
2023-04-16T09:07:17.142Z,834.00
2023-04-16T09:08:17.148Z,925.00
2023-04-16T09:09:17.149Z,1003.00
2023-04-16T09:10:17.174Z,1095.00
2023-04-16T09:11:17.158Z,1156.00
2023-04-16T09:12:17.148Z,1226.00
2023-04-16T09:13:17.154Z,1304.00
2023-04-16T09:14:17.154Z,1445.00
2023-04-16T09:15:17.218Z,1530.00
2023-04-16T09:16:17.336Z,1614.00
2023-04-16T09:17:17.296Z,1712.00
2023-04-16T09:18:17.329Z,1778.00
2023-04-16T09:19:17.316Z,1780.00
2023-04-16T09:20:17.316Z,1796.00
2023-04-16T09:21:17.335Z,1841.00
2023-04-16T09:22:17.317Z,1939.00
2023-04-16T09:23:17.309Z,2109.00
2023-04-16T09:24:17.317Z,2170.00
2023-04-16T09:25:17.324Z,2226.00
2023-04-16T09:26:17.317Z,2254.00
2023-04-16T09:27:17.303Z,2300.00
2023-04-16T09:28:17.302Z,2361.00
2023-04-16T09:29:17.297Z,2419.00
2023-04-16T09:30:17.295Z,2474.00
2023-04-16T09:31:17.326Z,2524.00
2023-04-16T09:32:17.428Z,2564.00
2023-04-16T09:33:17.291Z,2609.00
2023-04-16T09:34:17.299Z,2656.00
2023-04-16T09:35:17.293Z,2705.00
2023-04-16T09:36:17.293Z,2729.00
2023-04-16T09:37:17.307Z,2773.00
2023-04-16T09:38:17.313Z,2796.00
2023-04-16T09:39:17.303Z,2826.00
2023-04-16T09:40:17.327Z,2838.00
2023-04-16T09:41:17.306Z,2888.00
2023-04-16T09:42:17.308Z,2931.00
2023-04-16T09:43:17.312Z,2959.00
2023-04-16T09:44:17.314Z,2979.00
2023-04-16T09:45:17.303Z,3028.00
2023-04-16T09:46:17.350Z,3059.00
2023-04-16T09:47:17.300Z,3090.00
2023-04-16T09:48:17.300Z,3108.00
2023-04-16T09:49:17.285Z,3145.00
2023-04-16T09:50:18.180Z,3169.00
2023-04-16T09:51:17.280Z,3176.00
2023-04-16T09:52:17.271Z,3221.00
2023-04-16T09:53:17.273Z,3241.00
2023-04-16T09:54:17.266Z,3251.00
2023-04-16T09:55:17.273Z,3292.00
2023-04-16T09:56:17.310Z,3297.00
2023-04-16T09:57:17.336Z,3328.00
2023-04-16T09:58:17.373Z,3360.00
2023-04-16T09:59:17.384Z,3386.00
2023-04-16T10:00:17.436Z,3396.00
2023-04-16T10:01:17.515Z,3410.00
2023-04-16T10:02:17.536Z,3444.00
2023-04-16T10:03:17.694Z,3454.00
2023-04-16T10:04:17.753Z,3460.00
2023-04-16T10:05:17.730Z,3485.00
2023-04-16T10:06:17.791Z,3499.00
2023-04-16T10:07:17.847Z,3521.00
2023-04-16T10:08:17.910Z,3539.00
2023-04-16T10:09:17.972Z,3536.00
2023-04-16T10:10:18.072Z,3547.00
2023-04-16T10:11:18.107Z,3585.00
2023-04-16T10:12:18.165Z,3600.00
2023-04-16T10:13:18.222Z,3590.00
2023-04-16T10:14:18.290Z,3614.00
2023-04-16T10:15:18.352Z,3626.00
2023-04-16T10:16:18.445Z,3642.00
2023-04-16T10:17:18.492Z,3661.00
2023-04-16T10:18:18.514Z,3658.00
2023-04-16T10:19:18.562Z,3661.00
2023-04-16T10:20:18.683Z,3686.00
2023-04-16T10:21:18.652Z,3691.00
2023-04-16T10:22:18.714Z,3683.00
2023-04-16T10:23:18.742Z,3707.00
2023-04-16T10:24:18.781Z,3707.00
2023-04-16T10:25:18.825Z,3707.00
2023-04-16T10:26:18.847Z,3715.00
2023-04-16T10:27:18.871Z,3723.00
2023-04-16T10:28:18.907Z,3732.00
2023-04-16T10:29:18.926Z,3736.00
2023-04-16T10:30:18.944Z,3748.00
2023-04-16T10:31:19.016Z,3754.00
2023-04-16T10:32:18.997Z,3761.00
2023-04-16T10:33:18.996Z,3771.00
2023-04-16T10:34:19.000Z,3778.00
2023-04-16T10:35:19.015Z,3791.00
2023-04-16T10:36:19.035Z,3782.00
2023-04-16T10:37:19.057Z,3801.00
2023-04-16T10:38:19.079Z,3812.00
2023-04-16T10:39:19.059Z,3812.00
2023-04-16T10:40:19.049Z,3814.00
2023-04-16T10:41:19.055Z,3819.00
2023-04-16T10:42:19.026Z,3826.00
2023-04-16T10:43:19.014Z,3834.00
2023-04-16T10:44:19.020Z,3836.00
2023-04-16T10:45:19.021Z,3847.00
2023-04-16T10:46:19.062Z,3840.00
2023-04-16T10:47:19.023Z,3841.00
2023-04-16T10:48:18.991Z,3842.00
2023-04-16T10:49:19.044Z,3854.00
2023-04-16T10:50:18.995Z,3850.00
2023-04-16T10:51:18.994Z,3847.00
2023-04-16T10:52:19.037Z,3865.00
2023-04-16T10:53:18.995Z,3856.00
2023-04-16T10:54:18.997Z,3852.00
2023-04-16T10:55:18.997Z,3857.00
2023-04-16T10:56:18.986Z,3857.00
2023-04-16T10:57:19.024Z,3863.00
2023-04-16T10:58:18.996Z,3864.00
2023-04-16T10:59:18.991Z,3865.00
2023-04-16T11:00:18.980Z,3860.00
2023-04-16T11:01:19.051Z,3867.00
2023-04-16T11:02:19.437Z,3877.00
2023-04-16T11:03:19.321Z,3887.00
2023-04-16T11:04:19.059Z,3875.00
2023-04-16T11:05:18.979Z,3874.00
2023-04-16T11:06:18.962Z,3879.00
2023-04-16T11:07:19.027Z,3878.00
2023-04-16T11:08:18.959Z,3885.00
2023-04-16T11:09:18.956Z,3880.00
2023-04-16T11:10:18.957Z,3874.00
2023-04-16T11:11:18.951Z,3869.00
2023-04-16T11:12:18.979Z,3885.00
2023-04-16T11:13:18.957Z,3887.00
2023-04-16T11:14:18.976Z,3885.00
2023-04-16T11:15:18.956Z,3885.00
2023-04-16T11:17:18.969Z,3876.00
2023-04-16T11:18:18.950Z,3865.00
2023-04-16T11:19:18.936Z,3858.00
2023-04-16T11:20:19.886Z,3887.00
2023-04-16T11:21:18.934Z,3873.00
2023-04-16T11:22:18.919Z,3866.00
2023-04-16T11:23:18.952Z,3866.00
2023-04-16T11:24:18.918Z,3865.00
2023-04-16T11:25:18.912Z,3871.00
2023-04-16T11:26:18.908Z,3868.00
2023-04-16T11:27:18.884Z,3855.00
2023-04-16T11:28:18.882Z,3869.00
2023-04-16T11:29:18.916Z,3864.00
2023-04-16T11:30:18.918Z,3866.00
2023-04-16T11:31:19.085Z,3867.00
2023-04-16T11:32:18.979Z,3855.00
2023-04-16T11:33:18.993Z,3871.00
2023-04-16T11:34:18.998Z,3855.00
2023-04-16T11:35:19.030Z,3849.00
2023-04-16T11:36:19.036Z,3846.00
2023-04-16T11:37:19.068Z,3848.00
2023-04-16T11:38:19.085Z,3844.00
2023-04-16T11:39:19.101Z,3832.00
2023-04-16T11:40:19.107Z,3845.00
2023-04-16T11:41:19.129Z,3835.00
2023-04-16T11:42:19.211Z,3845.00
2023-04-16T11:43:19.169Z,3837.00
2023-04-16T11:44:19.189Z,3836.00
2023-04-16T11:45:19.203Z,3829.00
2023-04-16T11:46:26.783Z,3832.00
2023-04-16T11:47:20.266Z,3833.00
2023-04-16T11:48:19.299Z,3834.00
2023-04-16T11:49:19.191Z,3836.00
2023-04-16T11:50:19.192Z,3840.00
2023-04-16T11:51:19.196Z,3841.00
2023-04-16T11:52:19.188Z,3840.00
2023-04-16T11:53:19.196Z,3843.00
2023-04-16T11:54:19.195Z,3843.00
2023-04-16T11:55:19.186Z,3836.00
2023-04-16T11:56:19.188Z,3831.00
2023-04-16T11:57:19.175Z,3832.00
2023-04-16T11:58:19.181Z,3831.00
2023-04-16T11:59:19.170Z,3825.00
2023-04-16T12:00:19.220Z,3815.00
2023-04-16T12:01:20.160Z,3817.00
2023-04-16T12:02:19.208Z,3817.00
2023-04-16T12:03:19.336Z,3816.00
2023-04-16T12:04:19.308Z,3823.00
2023-04-16T12:05:19.145Z,3826.00
2023-04-16T12:06:19.142Z,3841.00
2023-04-16T12:07:19.126Z,3829.00
2023-04-16T12:08:19.133Z,3835.00
2023-04-16T12:09:19.124Z,3827.00
2023-04-16T12:10:19.118Z,3811.00
2023-04-16T12:11:19.119Z,3835.00
2023-04-16T12:12:19.124Z,3815.00
2023-04-16T12:13:19.129Z,3814.00
2023-04-16T12:14:19.129Z,3818.00
2023-04-16T12:15:19.142Z,3810.00
2023-04-16T12:16:19.187Z,3821.00
2023-04-16T12:17:19.110Z,3808.00
2023-04-16T12:18:19.114Z,3802.00